sensor_id;sensor_type;location;lat;lon;timestamp;P1;durP1;ratioP1;P2;durP2;ratioP2
10347;SDS011;5220;43.192;23.284;2023-02-28T00:00:47;8.93;;;7.93;;
10347;SDS011;5220;43.192;23.284;2023-02-28T00:03:14;8.73;;;7.82;;
10347;SDS011;5220;43.192;23.284;2023-02-28T00:05:41;9.35;;;7.75;;
10347;SDS011;5220;43.192;23.284;2023-02-28T00:08:08;8.32;;;7.22;;
10347;SDS011;5220;43.192;23.284;2023-02-28T00:10:36;8.45;;;7.13;;
10347;SDS011;5220;43.192;23.284;2023-02-28T00:13:03;9.13;;;7.93;;
10347;SDS011;5220;43.192;23.284;2023-02-28T00:15:32;8.52;;;7.43;;
10347;SDS011;5220;43.192;23.284;2023-02-28T00:18:01;9.65;;;7.70;;
10347;SDS011;5220;43.192;23.284;2023-02-28T00:20:28;10.10;;;7.95;;
10347;SDS011;5220;43.192;23.284;2023-02-28T00:22:55;8.65;;;7.60;;
10347;SDS011;5220;43.192;23.284;2023-02-28T00:25:24;9.88;;;7.88;;
10347;SDS011;5220;43.192;23.284;2023-02-28T00:27:51;9.85;;;8.40;;
10347;SDS011;5220;43.192;23.284;2023-02-28T00:30:19;9.50;;;8.50;;
10347;SDS011;5220;43.192;23.284;2023-02-28T00:32:48;11.02;;;8.18;;
10347;SDS011;5220;43.192;23.284;2023-02-28T00:35:15;9.70;;;7.63;;
10347;SDS011;5220;43.192;23.284;2023-02-28T00:37:42;8.63;;;7.57;;
10347;SDS011;5220;43.192;23.284;2023-02-28T00:40:09;9.23;;;7.30;;
10347;SDS011;5220;43.192;23.284;2023-02-28T00:42:37;9.85;;;8.18;;
10347;SDS011;5220;43.192;23.284;2023-02-28T00:45:05;8.20;;;7.40;;
10347;SDS011;5220;43.192;23.284;2023-02-28T00:47:33;8.00;;;7.10;;
10347;SDS011;5220;43.192;23.284;2023-02-28T00:50:02;7.53;;;6.72;;
10347;SDS011;5220;43.192;23.284;2023-02-28T00:52:29;7.82;;;6.68;;
10347;SDS011;5220;43.192;23.284;2023-02-28T00:54:56;7.55;;;6.15;;
10347;SDS011;5220;43.192;23.284;2023-02-28T00:57:22;8.00;;;6.30;;
10347;SDS011;5220;43.192;23.284;2023-02-28T00:59:49;8.10;;;6.15;;
10347;SDS011;5220;43.192;23.284;2023-02-28T01:02:16;7.47;;;6.22;;
10347;SDS011;5220;43.192;23.284;2023-02-28T01:04:45;8.45;;;6.57;;
10347;SDS011;5220;43.192;23.284;2023-02-28T01:07:13;8.10;;;6.80;;
10347;SDS011;5220;43.192;23.284;2023-02-28T01:09:40;8.05;;;6.43;;
10347;SDS011;5220;43.192;23.284;2023-02-28T01:12:07;8.55;;;6.28;;
10347;SDS011;5220;43.192;23.284;2023-02-28T01:14:35;8.95;;;7.15;;
10347;SDS011;5220;43.192;23.284;2023-02-28T01:17:01;7.53;;;6.68;;
10347;SDS011;5220;43.192;23.284;2023-02-28T01:19:28;7.75;;;5.65;;
10347;SDS011;5220;43.192;23.284;2023-02-28T01:21:55;8.20;;;6.90;;
10347;SDS011;5220;43.192;23.284;2023-02-28T01:24:23;8.85;;;6.70;;
10347;SDS011;5220;43.192;23.284;2023-02-28T01:26:50;9.48;;;7.97;;
10347;SDS011;5220;43.192;23.284;2023-02-28T01:29:16;13.07;;;8.73;;
10347;SDS011;5220;43.192;23.284;2023-02-28T01:31:43;10.95;;;8.63;;
10347;SDS011;5220;43.192;23.284;2023-02-28T01:34:10;10.40;;;8.57;;
10347;SDS011;5220;43.192;23.284;2023-02-28T01:36:37;11.40;;;9.18;;
10347;SDS011;5220;43.192;23.284;2023-02-28T01:39:04;13.43;;;9.93;;
10347;SDS011;5220;43.192;23.284;2023-02-28T01:41:32;13.02;;;9.80;;
10347;SDS011;5220;43.192;23.284;2023-02-28T01:44:01;12.63;;;9.90;;
10347;SDS011;5220;43.192;23.284;2023-02-28T01:46:31;13.55;;;10.75;;
10347;SDS011;5220;43.192;23.284;2023-02-28T01:49:01;14.60;;;11.00;;
10347;SDS011;5220;43.192;23.284;2023-02-28T01:51:35;11.95;;;10.38;;
10347;SDS011;5220;43.192;23.284;2023-02-28T01:54:11;13.40;;;10.63;;
10347;SDS011;5220;43.192;23.284;2023-02-28T01:56:43;14.93;;;12.02;;
10347;SDS011;5220;43.192;23.284;2023-02-28T01:59:14;15.43;;;12.00;;
10347;SDS011;5220;43.192;23.284;2023-02-28T02:01:46;15.60;;;11.82;;
10347;SDS011;5220;43.192;23.284;2023-02-28T02:04:13;16.27;;;11.32;;
10347;SDS011;5220;43.192;23.284;2023-02-28T02:06:40;14.80;;;11.52;;
10347;SDS011;5220;43.192;23.284;2023-02-28T02:09:09;14.77;;;12.40;;
10347;SDS011;5220;43.192;23.284;2023-02-28T02:11:36;22.40;;;11.20;;
10347;SDS011;5220;43.192;23.284;2023-02-28T02:14:12;16.88;;;12.30;;
10347;SDS011;5220;43.192;23.284;2023-02-28T02:17:03;18.25;;;13.90;;
10347;SDS011;5220;43.192;23.284;2023-02-28T02:19:49;26.15;;;14.55;;
10347;SDS011;5220;43.192;23.284;2023-02-28T02:25:47;40.60;;;14.90;;
10347;SDS011;5220;43.192;23.284;2023-02-28T02:34:22;62.90;;;15.80;;
10347;SDS011;5220;43.192;23.284;2023-02-28T02:36:56;26.55;;;15.45;;
10347;SDS011;5220;43.192;23.284;2023-02-28T02:39:34;44.75;;;16.05;;
10347;SDS011;5220;43.192;23.284;2023-02-28T02:42:11;177.13;;;20.35;;
10347;SDS011;5220;43.192;23.284;2023-02-28T02:44:45;72.15;;;15.10;;
10347;SDS011;5220;43.192;23.284;2023-02-28T02:47:17;117.32;;;19.42;;
10347;SDS011;5220;43.192;23.284;2023-02-28T02:49:50;121.45;;;18.35;;
10347;SDS011;5220;43.192;23.284;2023-02-28T02:52:20;105.90;;;18.83;;
10347;SDS011;5220;43.192;23.284;2023-02-28T02:54:51;86.38;;;18.08;;
10347;SDS011;5220;43.192;23.284;2023-02-28T02:57:22;135.68;;;19.02;;
10347;SDS011;5220;43.192;23.284;2023-02-28T02:59:53;97.03;;;18.23;;
10347;SDS011;5220;43.192;23.284;2023-02-28T03:02:22;72.07;;;18.08;;
10347;SDS011;5220;43.192;23.284;2023-02-28T03:04:53;56.58;;;16.63;;
10347;SDS011;5220;43.192;23.284;2023-02-28T03:07:26;100.75;;;16.42;;
10347;SDS011;5220;43.192;23.284;2023-02-28T03:09:53;87.10;;;15.45;;
10347;SDS011;5220;43.192;23.284;2023-02-28T03:12:20;62.92;;;14.07;;
10347;SDS011;5220;43.192;23.284;2023-02-28T03:14:55;52.15;;;14.77;;
10347;SDS011;5220;43.192;23.284;2023-02-28T03:17:34;26.50;;;12.80;;
10347;SDS011;5220;43.192;23.284;2023-02-28T03:20:23;33.33;;;12.02;;
10347;SDS011;5220;43.192;23.284;2023-02-28T03:23:03;71.82;;;15.70;;
10347;SDS011;5220;43.192;23.284;2023-02-28T03:25:41;43.35;;;17.30;;
10347;SDS011;5220;43.192;23.284;2023-02-28T03:28:19;72.70;;;17.92;;
10347;SDS011;5220;43.192;23.284;2023-02-28T03:30:57;85.45;;;19.42;;
10347;SDS011;5220;43.192;23.284;2023-02-28T03:33:29;76.05;;;20.00;;
10347;SDS011;5220;43.192;23.284;2023-02-28T03:36:01;41.42;;;20.83;;
10347;SDS011;5220;43.192;23.284;2023-02-28T03:38:34;57.15;;;20.73;;
10347;SDS011;5220;43.192;23.284;2023-02-28T03:41:05;50.08;;;20.85;;
10347;SDS011;5220;43.192;23.284;2023-02-28T03:43:40;84.70;;;20.58;;
10347;SDS011;5220;43.192;23.284;2023-02-28T03:46:12;63.08;;;22.40;;
10347;SDS011;5220;43.192;23.284;2023-02-28T03:48:47;60.28;;;22.08;;
10347;SDS011;5220;43.192;23.284;2023-02-28T03:51:23;54.95;;;18.42;;
10347;SDS011;5220;43.192;23.284;2023-02-28T03:53:54;82.50;;;19.10;;
10347;SDS011;5220;43.192;23.284;2023-02-28T03:56:24;79.55;;;21.15;;
10347;SDS011;5220;43.192;23.284;2023-02-28T03:58:58;71.60;;;20.40;;
10347;SDS011;5220;43.192;23.284;2023-02-28T04:01:30;39.60;;;18.65;;
10347;SDS011;5220;43.192;23.284;2023-02-28T04:04:03;72.03;;;19.45;;
10347;SDS011;5220;43.192;23.284;2023-02-28T04:06:32;79.20;;;19.73;;
10347;SDS011;5220;43.192;23.284;2023-02-28T04:09:03;43.28;;;17.25;;
10347;SDS011;5220;43.192;23.284;2023-02-28T04:11:32;34.03;;;16.75;;
10347;SDS011;5220;43.192;23.284;2023-02-28T04:14:01;77.72;;;19.13;;
10347;SDS011;5220;43.192;23.284;2023-02-28T04:16:29;61.75;;;22.70;;
10347;SDS011;5220;43.192;23.284;2023-02-28T04:18:56;53.95;;;21.60;;
10347;SDS011;5220;43.192;23.284;2023-02-28T04:21:27;54.28;;;21.70;;
10347;SDS011;5220;43.192;23.284;2023-02-28T04:23:55;49.97;;;20.35;;
10347;SDS011;5220;43.192;23.284;2023-02-28T04:26:27;37.33;;;17.30;;
10347;SDS011;5220;43.192;23.284;2023-02-28T04:28:55;24.25;;;15.45;;
10347;SDS011;5220;43.192;23.284;2023-02-28T04:31:22;26.45;;;16.40;;
10347;SDS011;5220;43.192;23.284;2023-02-28T04:33:48;54.03;;;21.38;;
10347;SDS011;5220;43.192;23.284;2023-02-28T04:36:15;36.33;;;18.92;;
10347;SDS011;5220;43.192;23.284;2023-02-28T04:38:43;32.45;;;15.65;;
10347;SDS011;5220;43.192;23.284;2023-02-28T04:41:12;25.83;;;15.75;;
10347;SDS011;5220;43.192;23.284;2023-02-28T04:43:39;27.52;;;15.65;;
10347;SDS011;5220;43.192;23.284;2023-02-28T04:46:06;24.17;;;16.25;;
10347;SDS011;5220;43.192;23.284;2023-02-28T04:48:34;25.73;;;15.15;;
10347;SDS011;5220;43.192;23.284;2023-02-28T04:51:02;22.85;;;16.05;;
10347;SDS011;5220;43.192;23.284;2023-02-28T04:53:30;25.45;;;15.90;;
10347;SDS011;5220;43.192;23.284;2023-02-28T04:55:57;20.98;;;15.10;;
10347;SDS011;5220;43.192;23.284;2023-02-28T04:58:25;20.65;;;15.80;;
10347;SDS011;5220;43.192;23.284;2023-02-28T05:00:53;22.50;;;14.55;;
10347;SDS011;5220;43.192;23.284;2023-02-28T05:03:20;20.95;;;15.25;;
10347;SDS011;5220;43.192;23.284;2023-02-28T05:05:47;22.48;;;15.70;;
10347;SDS011;5220;43.192;23.284;2023-02-28T05:08:14;25.48;;;17.23;;
10347;SDS011;5220;43.192;23.284;2023-02-28T05:10:41;19.80;;;14.85;;
10347;SDS011;5220;43.192;23.284;2023-02-28T05:13:09;16.27;;;12.60;;
10347;SDS011;5220;43.192;23.284;2023-02-28T05:15:39;20.35;;;14.68;;
10347;SDS011;5220;43.192;23.284;2023-02-28T05:18:07;18.55;;;14.90;;
10347;SDS011;5220;43.192;23.284;2023-02-28T05:20:34;20.10;;;14.88;;
10347;SDS011;5220;43.192;23.284;2023-02-28T05:23:01;19.77;;;14.68;;
10347;SDS011;5220;43.192;23.284;2023-02-28T05:25:28;21.58;;;15.10;;
10347;SDS011;5220;43.192;23.284;2023-02-28T05:27:55;15.23;;;12.73;;
10347;SDS011;5220;43.192;23.284;2023-02-28T05:30:21;15.13;;;12.70;;
10347;SDS011;5220;43.192;23.284;2023-02-28T05:32:51;21.42;;;16.58;;
10347;SDS011;5220;43.192;23.284;2023-02-28T05:35:17;20.75;;;16.23;;
10347;SDS011;5220;43.192;23.284;2023-02-28T05:37:44;19.33;;;15.00;;
10347;SDS011;5220;43.192;23.284;2023-02-28T05:40:11;18.58;;;13.70;;
10347;SDS011;5220;43.192;23.284;2023-02-28T05:42:38;21.90;;;16.13;;
10347;SDS011;5220;43.192;23.284;2023-02-28T05:45:06;25.40;;;18.17;;
10347;SDS011;5220;43.192;23.284;2023-02-28T05:47:33;21.88;;;16.75;;
10347;SDS011;5220;43.192;23.284;2023-02-28T05:50:02;29.83;;;22.58;;
10347;SDS011;5220;43.192;23.284;2023-02-28T05:52:29;22.77;;;16.45;;
10347;SDS011;5220;43.192;23.284;2023-02-28T05:54:56;26.30;;;18.52;;
10347;SDS011;5220;43.192;23.284;2023-02-28T05:57:23;26.55;;;19.48;;
10347;SDS011;5220;43.192;23.284;2023-02-28T05:59:49;24.65;;;17.92;;
10347;SDS011;5220;43.192;23.284;2023-02-28T06:02:16;27.15;;;17.55;;
10347;SDS011;5220;43.192;23.284;2023-02-28T06:04:43;23.02;;;15.82;;
10347;SDS011;5220;43.192;23.284;2023-02-28T06:07:12;21.05;;;15.48;;
10347;SDS011;5220;43.192;23.284;2023-02-28T06:09:38;22.60;;;16.98;;
10347;SDS011;5220;43.192;23.284;2023-02-28T06:12:05;26.00;;;15.82;;
10347;SDS011;5220;43.192;23.284;2023-02-28T06:14:35;20.67;;;15.25;;
10347;SDS011;5220;43.192;23.284;2023-02-28T06:17:02;21.95;;;17.58;;
10347;SDS011;5220;43.192;23.284;2023-02-28T06:19:29;21.77;;;16.63;;
10347;SDS011;5220;43.192;23.284;2023-02-28T06:21:56;22.45;;;16.38;;
10347;SDS011;5220;43.192;23.284;2023-02-28T06:24:26;23.27;;;16.45;;
10347;SDS011;5220;43.192;23.284;2023-02-28T06:26:54;21.33;;;14.95;;
10347;SDS011;5220;43.192;23.284;2023-02-28T06:29:21;24.35;;;18.27;;
10347;SDS011;5220;43.192;23.284;2023-02-28T06:31:48;21.58;;;16.90;;
10347;SDS011;5220;43.192;23.284;2023-02-28T06:34:15;22.65;;;17.60;;
10347;SDS011;5220;43.192;23.284;2023-02-28T06:36:42;21.17;;;15.52;;
10347;SDS011;5220;43.192;23.284;2023-02-28T06:39:09;21.10;;;14.93;;
10347;SDS011;5220;43.192;23.284;2023-02-28T06:41:37;20.85;;;15.60;;
10347;SDS011;5220;43.192;23.284;2023-02-28T06:44:05;25.67;;;19.52;;
10347;SDS011;5220;43.192;23.284;2023-02-28T06:46:40;34.72;;;26.13;;
10347;SDS011;5220;43.192;23.284;2023-02-28T06:49:07;28.92;;;19.75;;
10347;SDS011;5220;43.192;23.284;2023-02-28T06:51:35;44.38;;;25.63;;
10347;SDS011;5220;43.192;23.284;2023-02-28T06:54:02;29.80;;;18.50;;
10347;SDS011;5220;43.192;23.284;2023-02-28T06:56:29;23.40;;;15.90;;
10347;SDS011;5220;43.192;23.284;2023-02-28T06:58:58;24.90;;;17.85;;
10347;SDS011;5220;43.192;23.284;2023-02-28T07:01:24;30.15;;;20.52;;
10347;SDS011;5220;43.192;23.284;2023-02-28T07:03:52;30.15;;;19.98;;
10347;SDS011;5220;43.192;23.284;2023-02-28T07:06:20;35.53;;;21.67;;
10347;SDS011;5220;43.192;23.284;2023-02-28T07:08:48;31.30;;;20.52;;
10347;SDS011;5220;43.192;23.284;2023-02-28T07:11:15;25.38;;;17.73;;
10347;SDS011;5220;43.192;23.284;2023-02-28T07:13:42;27.83;;;18.85;;
10347;SDS011;5220;43.192;23.284;2023-02-28T07:16:10;26.52;;;16.05;;
10347;SDS011;5220;43.192;23.284;2023-02-28T07:18:37;28.88;;;15.70;;
10347;SDS011;5220;43.192;23.284;2023-02-28T07:21:05;18.58;;;14.93;;
10347;SDS011;5220;43.192;23.284;2023-02-28T07:23:33;43.33;;;15.40;;
10347;SDS011;5220;43.192;23.284;2023-02-28T07:26:00;23.67;;;14.27;;
10347;SDS011;5220;43.192;23.284;2023-02-28T07:28:27;20.90;;;14.55;;
10347;SDS011;5220;43.192;23.284;2023-02-28T07:30:54;23.05;;;12.68;;
10347;SDS011;5220;43.192;23.284;2023-02-28T07:33:22;20.02;;;14.85;;
10347;SDS011;5220;43.192;23.284;2023-02-28T07:35:49;16.70;;;12.25;;
10347;SDS011;5220;43.192;23.284;2023-02-28T07:38:16;21.75;;;16.30;;
10347;SDS011;5220;43.192;23.284;2023-02-28T07:40:43;27.48;;;23.70;;
10347;SDS011;5220;43.192;23.284;2023-02-28T07:43:09;24.13;;;19.73;;
10347;SDS011;5220;43.192;23.284;2023-02-28T07:45:37;18.95;;;13.52;;
10347;SDS011;5220;43.192;23.284;2023-02-28T07:48:04;17.45;;;11.73;;
10347;SDS011;5220;43.192;23.284;2023-02-28T07:50:32;17.20;;;12.32;;
10347;SDS011;5220;43.192;23.284;2023-02-28T07:52:59;40.42;;;13.70;;
10347;SDS011;5220;43.192;23.284;2023-02-28T07:55:26;25.52;;;14.93;;
10347;SDS011;5220;43.192;23.284;2023-02-28T07:57:53;23.80;;;14.85;;
10347;SDS011;5220;43.192;23.284;2023-02-28T08:00:20;25.55;;;18.65;;
10347;SDS011;5220;43.192;23.284;2023-02-28T08:02:47;23.00;;;11.40;;
10347;SDS011;5220;43.192;23.284;2023-02-28T08:05:14;17.33;;;11.52;;
10347;SDS011;5220;43.192;23.284;2023-02-28T08:07:42;24.20;;;12.68;;
10347;SDS011;5220;43.192;23.284;2023-02-28T08:10:09;21.00;;;14.80;;
10347;SDS011;5220;43.192;23.284;2023-02-28T08:12:36;17.23;;;13.68;;
10347;SDS011;5220;43.192;23.284;2023-02-28T08:15:03;26.23;;;16.98;;
10347;SDS011;5220;43.192;23.284;2023-02-28T08:17:31;20.10;;;14.75;;
10347;SDS011;5220;43.192;23.284;2023-02-28T08:19:57;21.38;;;14.75;;
10347;SDS011;5220;43.192;23.284;2023-02-28T08:22:24;17.23;;;12.57;;
10347;SDS011;5220;43.192;23.284;2023-02-28T08:24:52;25.67;;;13.85;;
10347;SDS011;5220;43.192;23.284;2023-02-28T08:27:19;25.05;;;12.68;;
10347;SDS011;5220;43.192;23.284;2023-02-28T08:29:46;20.10;;;13.38;;
10347;SDS011;5220;43.192;23.284;2023-02-28T08:32:12;18.08;;;13.38;;
10347;SDS011;5220;43.192;23.284;2023-02-28T08:34:39;18.92;;;13.35;;
10347;SDS011;5220;43.192;23.284;2023-02-28T08:37:06;25.17;;;17.88;;
10347;SDS011;5220;43.192;23.284;2023-02-28T08:39:33;19.60;;;14.82;;
10347;SDS011;5220;43.192;23.284;2023-02-28T08:42:02;17.92;;;12.38;;
10347;SDS011;5220;43.192;23.284;2023-02-28T08:44:29;20.10;;;12.13;;
10347;SDS011;5220;43.192;23.284;2023-02-28T08:46:55;15.10;;;12.15;;
10347;SDS011;5220;43.192;23.284;2023-02-28T08:49:22;20.23;;;13.20;;
10347;SDS011;5220;43.192;23.284;2023-02-28T08:51:49;26.85;;;14.45;;
10347;SDS011;5220;43.192;23.284;2023-02-28T08:54:15;22.33;;;14.93;;
10347;SDS011;5220;43.192;23.284;2023-02-28T08:56:44;23.92;;;17.55;;
10347;SDS011;5220;43.192;23.284;2023-02-28T08:59:13;20.55;;;13.98;;
10347;SDS011;5220;43.192;23.284;2023-02-28T09:01:39;30.13;;;14.75;;
10347;SDS011;5220;43.192;23.284;2023-02-28T09:04:08;25.40;;;14.02;;
10347;SDS011;5220;43.192;23.284;2023-02-28T09:06:36;25.73;;;14.90;;
10347;SDS011;5220;43.192;23.284;2023-02-28T09:09:04;18.08;;;13.05;;
10347;SDS011;5220;43.192;23.284;2023-02-28T09:11:32;14.77;;;11.77;;
10347;SDS011;5220;43.192;23.284;2023-02-28T09:13:59;13.95;;;12.30;;
10347;SDS011;5220;43.192;23.284;2023-02-28T09:16:29;15.07;;;10.63;;
10347;SDS011;5220;43.192;23.284;2023-02-28T09:18:57;13.73;;;10.63;;
10347;SDS011;5220;43.192;23.284;2023-02-28T09:21:24;18.58;;;13.20;;
10347;SDS011;5220;43.192;23.284;2023-02-28T09:23:51;13.15;;;10.65;;
10347;SDS011;5220;43.192;23.284;2023-02-28T09:26:18;14.80;;;10.15;;
10347;SDS011;5220;43.192;23.284;2023-02-28T09:28:47;12.75;;;10.10;;
10347;SDS011;5220;43.192;23.284;2023-02-28T09:31:15;16.30;;;12.02;;
10347;SDS011;5220;43.192;23.284;2023-02-28T09:33:47;18.88;;;11.85;;
10347;SDS011;5220;43.192;23.284;2023-02-28T09:36:14;16.27;;;12.32;;
10347;SDS011;5220;43.192;23.284;2023-02-28T09:38:41;21.60;;;12.45;;
10347;SDS011;5220;43.192;23.284;2023-02-28T09:41:11;16.85;;;11.70;;
10347;SDS011;5220;43.192;23.284;2023-02-28T09:43:43;15.52;;;11.65;;
10347;SDS011;5220;43.192;23.284;2023-02-28T09:46:17;13.35;;;10.25;;
10347;SDS011;5220;43.192;23.284;2023-02-28T09:48:54;12.05;;;9.50;;
10347;SDS011;5220;43.192;23.284;2023-02-28T09:51:30;12.65;;;8.82;;
10347;SDS011;5220;43.192;23.284;2023-02-28T09:54:02;11.05;;;7.90;;
10347;SDS011;5220;43.192;23.284;2023-02-28T09:56:30;14.93;;;8.85;;
10347;SDS011;5220;43.192;23.284;2023-02-28T09:59:04;16.60;;;10.32;;
10347;SDS011;5220;43.192;23.284;2023-02-28T10:01:42;26.23;;;12.15;;
10347;SDS011;5220;43.192;23.284;2023-02-28T10:04:16;10.50;;;8.18;;
10347;SDS011;5220;43.192;23.284;2023-02-28T10:07:00;7.78;;;6.57;;
10347;SDS011;5220;43.192;23.284;2023-02-28T10:09:32;8.90;;;7.88;;
10347;SDS011;5220;43.192;23.284;2023-02-28T10:12:03;9.88;;;7.88;;
10347;SDS011;5220;43.192;23.284;2023-02-28T10:14:31;10.38;;;8.07;;
10347;SDS011;5220;43.192;23.284;2023-02-28T10:17:01;14.80;;;7.40;;
10347;SDS011;5220;43.192;23.284;2023-02-28T10:19:33;12.48;;;7.63;;
10347;SDS011;5220;43.192;23.284;2023-02-28T10:22:08;12.27;;;7.35;;
10347;SDS011;5220;43.192;23.284;2023-02-28T10:24:40;11.90;;;8.88;;
10347;SDS011;5220;43.192;23.284;2023-02-28T10:27:12;7.07;;;6.38;;
10347;SDS011;5220;43.192;23.284;2023-02-28T10:29:41;9.90;;;8.48;;
10347;SDS011;5220;43.192;23.284;2023-02-28T10:32:10;15.20;;;11.43;;
10347;SDS011;5220;43.192;23.284;2023-02-28T10:34:42;9.45;;;8.45;;
10347;SDS011;5220;43.192;23.284;2023-02-28T10:37:09;10.32;;;8.27;;
10347;SDS011;5220;43.192;23.284;2023-02-28T10:39:38;7.20;;;6.45;;
10347;SDS011;5220;43.192;23.284;2023-02-28T10:42:18;10.18;;;6.53;;
10347;SDS011;5220;43.192;23.284;2023-02-28T10:44:51;7.07;;;6.28;;
10347;SDS011;5220;43.192;23.284;2023-02-28T10:47:32;26.27;;;6.95;;
10347;SDS011;5220;43.192;23.284;2023-02-28T10:50:03;12.65;;;9.23;;
10347;SDS011;5220;43.192;23.284;2023-02-28T10:52:35;11.57;;;9.18;;
10347;SDS011;5220;43.192;23.284;2023-02-28T10:55:15;9.35;;;7.28;;
10347;SDS011;5220;43.192;23.284;2023-02-28T10:57:47;15.45;;;12.45;;
10347;SDS011;5220;43.192;23.284;2023-02-28T11:00:15;19.48;;;14.52;;
10347;SDS011;5220;43.192;23.284;2023-02-28T11:02:44;11.57;;;8.73;;
10347;SDS011;5220;43.192;23.284;2023-02-28T11:05:27;10.55;;;6.30;;
10347;SDS011;5220;43.192;23.284;2023-02-28T11:07:56;7.75;;;5.90;;
10347;SDS011;5220;43.192;23.284;2023-02-28T11:10:27;8.88;;;6.53;;
10347;SDS011;5220;43.192;23.284;2023-02-28T11:12:59;9.18;;;8.27;;
10347;SDS011;5220;43.192;23.284;2023-02-28T11:15:27;13.38;;;9.07;;
10347;SDS011;5220;43.192;23.284;2023-02-28T11:17:56;8.77;;;7.20;;
10347;SDS011;5220;43.192;23.284;2023-02-28T11:20:27;11.55;;;7.47;;
10347;SDS011;5220;43.192;23.284;2023-02-28T11:22:56;9.15;;;7.38;;
10347;SDS011;5220;43.192;23.284;2023-02-28T11:25:24;5.68;;;5.03;;
10347;SDS011;5220;43.192;23.284;2023-02-28T11:27:53;7.13;;;6.35;;
10347;SDS011;5220;43.192;23.284;2023-02-28T11:30:23;7.63;;;6.30;;
10347;SDS011;5220;43.192;23.284;2023-02-28T11:32:55;6.88;;;6.18;;
10347;SDS011;5220;43.192;23.284;2023-02-28T11:35:23;11.18;;;8.32;;
10347;SDS011;5220;43.192;23.284;2023-02-28T11:37:56;14.50;;;8.90;;
10347;SDS011;5220;43.192;23.284;2023-02-28T11:40:25;15.90;;;10.98;;
10347;SDS011;5220;43.192;23.284;2023-02-28T11:43:01;14.88;;;9.48;;
10347;SDS011;5220;43.192;23.284;2023-02-28T11:45:42;8.50;;;6.82;;
10347;SDS011;5220;43.192;23.284;2023-02-28T11:48:17;11.38;;;7.75;;
10347;SDS011;5220;43.192;23.284;2023-02-28T11:50:52;7.40;;;6.38;;
10347;SDS011;5220;43.192;23.284;2023-02-28T11:53:33;8.25;;;6.75;;
10347;SDS011;5220;43.192;23.284;2023-02-28T11:56:09;10.68;;;5.90;;
10347;SDS011;5220;43.192;23.284;2023-02-28T11:58:44;9.02;;;5.25;;
10347;SDS011;5220;43.192;23.284;2023-02-28T12:04:17;5.88;;;4.38;;
10347;SDS011;5220;43.192;23.284;2023-02-28T12:06:54;9.02;;;4.95;;
10347;SDS011;5220;43.192;23.284;2023-02-28T12:12:21;11.65;;;9.48;;
10347;SDS011;5220;43.192;23.284;2023-02-28T12:17:50;7.40;;;5.90;;
10347;SDS011;5220;43.192;23.284;2023-02-28T12:20:24;8.88;;;7.45;;
10347;SDS011;5220;43.192;23.284;2023-02-28T12:22:58;8.60;;;6.65;;
10347;SDS011;5220;43.192;23.284;2023-02-28T12:25:50;8.48;;;5.28;;
10347;SDS011;5220;43.192;23.284;2023-02-28T12:28:27;14.55;;;10.75;;
10347;SDS011;5220;43.192;23.284;2023-02-28T12:31:00;5.60;;;5.10;;
10347;SDS011;5220;43.192;23.284;2023-02-28T12:33:33;11.90;;;9.05;;
10347;SDS011;5220;43.192;23.284;2023-02-28T12:36:03;10.32;;;8.50;;
10347;SDS011;5220;43.192;23.284;2023-02-28T12:38:39;21.75;;;3.88;;
10347;SDS011;5220;43.192;23.284;2023-02-28T12:41:11;8.15;;;3.72;;
10347;SDS011;5220;43.192;23.284;2023-02-28T12:43:40;3.53;;;3.20;;
10347;SDS011;5220;43.192;23.284;2023-02-28T12:46:11;7.20;;;5.05;;
10347;SDS011;5220;43.192;23.284;2023-02-28T12:48:43;7.40;;;5.60;;
10347;SDS011;5220;43.192;23.284;2023-02-28T12:51:12;13.30;;;10.07;;
10347;SDS011;5220;43.192;23.284;2023-02-28T12:53:47;9.00;;;7.03;;
10347;SDS011;5220;43.192;23.284;2023-02-28T12:56:22;7.97;;;5.75;;
10347;SDS011;5220;43.192;23.284;2023-02-28T12:59:01;10.23;;;8.48;;
10347;SDS011;5220;43.192;23.284;2023-02-28T13:01:42;8.13;;;7.20;;
10347;SDS011;5220;43.192;23.284;2023-02-28T13:04:32;6.03;;;5.43;;
10347;SDS011;5220;43.192;23.284;2023-02-28T13:10:14;6.10;;;5.50;;
10347;SDS011;5220;43.192;23.284;2023-02-28T13:12:47;10.68;;;9.45;;
10347;SDS011;5220;43.192;23.284;2023-02-28T13:15:16;21.77;;;10.43;;
10347;SDS011;5220;43.192;23.284;2023-02-28T13:17:48;9.32;;;7.85;;
10347;SDS011;5220;43.192;23.284;2023-02-28T13:20:17;9.52;;;7.10;;
10347;SDS011;5220;43.192;23.284;2023-02-28T13:22:46;7.00;;;6.30;;
10347;SDS011;5220;43.192;23.284;2023-02-28T13:31:31;5.78;;;5.20;;
10347;SDS011;5220;43.192;23.284;2023-02-28T13:36:42;7.82;;;6.90;;
10347;SDS011;5220;43.192;23.284;2023-02-28T13:42:33;13.48;;;10.77;;
10347;SDS011;5220;43.192;23.284;2023-02-28T13:45:21;12.43;;;9.23;;
10347;SDS011;5220;43.192;23.284;2023-02-28T13:47:54;9.68;;;8.13;;
10347;SDS011;5220;43.192;23.284;2023-02-28T13:50:27;11.60;;;10.30;;
10347;SDS011;5220;43.192;23.284;2023-02-28T13:53:19;8.57;;;7.68;;
10347;SDS011;5220;43.192;23.284;2023-02-28T13:56:10;9.27;;;8.27;;
10347;SDS011;5220;43.192;23.284;2023-02-28T13:58:54;6.53;;;5.85;;
10347;SDS011;5220;43.192;23.284;2023-02-28T14:01:35;8.20;;;7.22;;
10347;SDS011;5220;43.192;23.284;2023-02-28T14:04:23;5.13;;;4.63;;
10347;SDS011;5220;43.192;23.284;2023-02-28T14:07:15;26.60;;;20.08;;
10347;SDS011;5220;43.192;23.284;2023-02-28T14:09:45;13.48;;;9.65;;
10347;SDS011;5220;43.192;23.284;2023-02-28T14:15:28;6.18;;;5.53;;
10347;SDS011;5220;43.192;23.284;2023-02-28T14:18:22;13.23;;;11.00;;
10347;SDS011;5220;43.192;23.284;2023-02-28T14:20:53;11.25;;;9.75;;
10347;SDS011;5220;43.192;23.284;2023-02-28T14:23:29;8.98;;;7.47;;
10347;SDS011;5220;43.192;23.284;2023-02-28T14:26:20;10.77;;;7.18;;
10347;SDS011;5220;43.192;23.284;2023-02-28T14:29:14;9.10;;;6.75;;
10347;SDS011;5220;43.192;23.284;2023-02-28T14:31:57;10.00;;;9.00;;
10347;SDS011;5220;43.192;23.284;2023-02-28T14:34:39;11.73;;;8.95;;
10347;SDS011;5220;43.192;23.284;2023-02-28T14:37:10;8.68;;;7.15;;
10347;SDS011;5220;43.192;23.284;2023-02-28T14:39:42;8.57;;;7.63;;
10347;SDS011;5220;43.192;23.284;2023-02-28T14:44:55;6.68;;;5.82;;
10347;SDS011;5220;43.192;23.284;2023-02-28T14:47:24;8.25;;;6.13;;
10347;SDS011;5220;43.192;23.284;2023-02-28T14:49:54;9.85;;;7.82;;
10347;SDS011;5220;43.192;23.284;2023-02-28T14:52:22;9.80;;;7.88;;
10347;SDS011;5220;43.192;23.284;2023-02-28T14:54:51;14.82;;;9.60;;
10347;SDS011;5220;43.192;23.284;2023-02-28T14:57:23;9.20;;;6.90;;
10347;SDS011;5220;43.192;23.284;2023-02-28T15:00:02;17.33;;;11.88;;
10347;SDS011;5220;43.192;23.284;2023-02-28T15:02:37;15.13;;;12.05;;
10347;SDS011;5220;43.192;23.284;2023-02-28T15:05:28;14.30;;;11.80;;
10347;SDS011;5220;43.192;23.284;2023-02-28T15:08:06;14.38;;;10.82;;
10347;SDS011;5220;43.192;23.284;2023-02-28T15:10:38;14.43;;;11.75;;
10347;SDS011;5220;43.192;23.284;2023-02-28T15:13:07;15.68;;;10.02;;
10347;SDS011;5220;43.192;23.284;2023-02-28T15:15:43;12.30;;;10.20;;
10347;SDS011;5220;43.192;23.284;2023-02-28T15:18:22;15.30;;;12.05;;
10347;SDS011;5220;43.192;23.284;2023-02-28T15:20:54;18.85;;;16.88;;
10347;SDS011;5220;43.192;23.284;2023-02-28T15:23:22;12.52;;;11.30;;
10347;SDS011;5220;43.192;23.284;2023-02-28T15:25:49;10.35;;;9.05;;
10347;SDS011;5220;43.192;23.284;2023-02-28T15:28:19;8.95;;;8.02;;
10347;SDS011;5220;43.192;23.284;2023-02-28T15:30:52;8.38;;;7.13;;